Main page
METAR-TAF:

METAR-TAF

Airports :

Morlaix – Ploujean Airport

Morlaix, France

latitude: 48-36N, longitude: 3-49W, elevation: 84 m

Current weather observation

The report was made 1 hour and 28 minutes ago, at 18:00 UTC
Wind 18 kt from the Southwest with gusts up to 28 kt
Temperature 12°C
Humidity 82%
Pressure 1003 hPa
Visibility 10 km or more
Broken clouds at a height of 2200 ft
Overcast at a height of 4000 ft

METAR: LFRU 281800Z AUTO 23018G28KT 9999 BKN022 OVC040 12/09 Q1003

Time: 20:28 (19:28 UTC)


TAF: missing

Weather observations and forecasts of more than 4000 airports (METAR and TAF reports).

The available stations are represented by yellow and red dots on the map.

Hover mouse over dot to see the name of the station.

Then click to see weather observations and forecasts.

To change the map : click on the green buttons with a black cross to zoom in, on the green button with a dash to zoom out, or on the green arrows for adjacent maps.


METAR-TAF: